createdAt,value
2019-01-04T00:00:42.567Z,0.00
2019-01-04T00:01:42.535Z,0.00
2019-01-04T00:02:42.509Z,0.00
2019-01-04T00:03:42.490Z,0.00
2019-01-04T00:04:42.463Z,0.00
2019-01-04T00:05:42.437Z,0.00
2019-01-04T00:06:42.409Z,0.00
2019-01-04T00:07:42.384Z,0.00
2019-01-04T00:08:42.362Z,0.00
2019-01-04T00:09:42.336Z,0.00
2019-01-04T00:10:42.310Z,0.00
2019-01-04T00:11:42.283Z,0.00
2019-01-04T00:12:42.264Z,0.00
2019-01-04T00:13:42.235Z,0.00
2019-01-04T00:14:42.216Z,0.00
2019-01-04T00:15:42.189Z,0.00
2019-01-04T00:16:42.181Z,0.00
2019-01-04T00:17:42.133Z,0.00
2019-01-04T00:18:42.109Z,0.00
2019-01-04T00:19:42.089Z,0.00
2019-01-04T00:20:42.060Z,0.00
2019-01-04T00:21:42.707Z,0.00
2019-01-04T00:22:42.008Z,0.00
2019-01-04T00:23:41.986Z,0.00
2019-01-04T00:24:41.961Z,0.00
2019-01-04T00:25:41.934Z,0.00
2019-01-04T00:26:41.911Z,0.00
2019-01-04T00:27:41.889Z,0.00
2019-01-04T00:28:41.857Z,0.00
2019-01-04T00:29:41.833Z,0.00
2019-01-04T00:30:41.809Z,0.00
2019-01-04T00:31:41.787Z,0.00
2019-01-04T00:32:41.761Z,0.00
2019-01-04T00:33:41.798Z,0.00
2019-01-04T00:34:41.711Z,0.00
2019-01-04T00:35:41.683Z,0.00
2019-01-04T00:36:41.663Z,0.00
2019-01-04T00:37:41.632Z,0.00
2019-01-04T00:38:41.612Z,0.00
2019-01-04T00:39:41.581Z,0.00
2019-01-04T00:40:42.170Z,0.00
2019-01-04T00:41:41.538Z,0.00
2019-01-04T00:42:41.506Z,0.00
2019-01-04T00:43:41.483Z,0.00
2019-01-04T00:44:41.455Z,0.00
2019-01-04T00:45:41.435Z,0.00
2019-01-04T00:46:41.407Z,0.00
2019-01-04T00:47:41.386Z,0.00
2019-01-04T00:48:41.355Z,0.00
2019-01-04T00:49:41.331Z,0.00
2019-01-04T00:50:41.307Z,0.00
2019-01-04T00:51:41.281Z,0.00
2019-01-04T00:52:41.262Z,0.00
2019-01-04T00:53:41.230Z,0.00
2019-01-04T00:54:41.201Z,0.00
2019-01-04T00:55:41.176Z,0.00
2019-01-04T00:56:41.153Z,0.00
2019-01-04T00:57:41.134Z,0.00
2019-01-04T00:58:41.102Z,0.00
2019-01-04T00:59:41.086Z,0.00
2019-01-04T01:00:41.056Z,0.00
2019-01-04T01:01:41.035Z,0.00
2019-01-04T01:02:41.009Z,0.00
2019-01-04T01:03:40.979Z,0.00
2019-01-04T01:04:40.967Z,0.00
2019-01-04T01:05:40.938Z,0.00
2019-01-04T01:06:41.667Z,0.00
2019-01-04T01:07:40.893Z,0.00
2019-01-04T01:08:40.849Z,0.00
2019-01-04T01:09:40.823Z,0.00
2019-01-04T01:10:40.798Z,0.00
2019-01-04T01:11:40.778Z,0.00
2019-01-04T01:12:40.750Z,0.00
2019-01-04T01:13:40.730Z,0.00
2019-01-04T01:14:41.091Z,0.00
2019-01-04T01:15:40.668Z,0.00
2019-01-04T01:16:40.649Z,0.00
2019-01-04T01:17:40.620Z,0.00
2019-01-04T01:18:41.169Z,0.00
2019-01-04T01:19:40.569Z,0.00
2019-01-04T01:20:40.559Z,0.00
2019-01-04T01:21:40.540Z,0.00
2019-01-04T01:22:40.493Z,0.00
2019-01-04T01:23:40.467Z,0.00
2019-01-04T01:24:40.448Z,0.00
2019-01-04T01:25:40.436Z,0.00
2019-01-04T01:26:40.390Z,0.00
2019-01-04T01:27:40.364Z,0.00
2019-01-04T01:28:40.339Z,0.00
2019-01-04T01:29:40.322Z,0.00
2019-01-04T01:30:40.304Z,0.00
2019-01-04T01:31:40.262Z,0.00
2019-01-04T01:32:41.166Z,0.00
2019-01-04T01:33:40.217Z,0.00
2019-01-04T01:34:40.186Z,0.00
2019-01-04T01:35:40.180Z,0.00
2019-01-04T01:36:40.141Z,0.00
2019-01-04T01:37:40.110Z,0.00
2019-01-04T01:38:40.082Z,0.00
2019-01-04T01:39:40.672Z,0.00
2019-01-04T01:40:40.033Z,0.00
2019-01-04T01:41:40.007Z,0.00
2019-01-04T01:42:39.984Z,0.00
2019-01-04T01:43:40.674Z,0.00
2019-01-04T01:44:39.931Z,0.00
2019-01-04T01:45:40.679Z,0.00
2019-01-04T01:46:40.046Z,0.00
2019-01-04T01:47:39.859Z,0.00
2019-01-04T01:48:40.678Z,0.00
2019-01-04T01:49:39.803Z,0.00
2019-01-04T01:50:39.793Z,0.00
2019-01-04T01:51:39.756Z,0.00
2019-01-04T01:52:39.724Z,0.00
2019-01-04T01:53:39.705Z,0.00
2019-01-04T01:54:39.684Z,0.00
2019-01-04T01:55:39.647Z,0.00
2019-01-04T01:56:40.182Z,0.00
2019-01-04T01:57:39.596Z,0.00
2019-01-04T01:58:39.574Z,0.00
2019-01-04T01:59:39.548Z,0.00
2019-01-04T02:00:39.525Z,0.00
2019-01-04T02:01:39.505Z,0.00
2019-01-04T02:02:39.470Z,0.00
2019-01-04T02:03:39.439Z,0.00
2019-01-04T02:04:39.416Z,0.00
2019-01-04T02:05:39.397Z,0.00
2019-01-04T02:06:39.371Z,0.00
2019-01-04T02:07:39.349Z,0.00
2019-01-04T02:08:39.322Z,0.00
2019-01-04T02:09:39.297Z,0.00
2019-01-04T02:10:40.183Z,0.00
2019-01-04T02:11:39.238Z,0.00
2019-01-04T02:12:39.217Z,0.00
2019-01-04T02:13:39.189Z,0.00
2019-01-04T02:14:39.161Z,0.00
2019-01-04T02:15:39.133Z,0.00
2019-01-04T02:16:39.116Z,0.00
2019-01-04T02:17:39.684Z,0.00
2019-01-04T02:18:39.071Z,0.00
2019-01-04T02:19:39.682Z,0.00
2019-01-04T02:20:39.007Z,0.00
2019-01-04T02:21:38.985Z,0.00
2019-01-04T02:22:39.118Z,0.00
2019-01-04T02:23:38.936Z,0.00
2019-01-04T02:24:38.910Z,0.00
2019-01-04T02:25:38.961Z,0.00
2019-01-04T02:26:39.302Z,0.00
2019-01-04T02:27:39.148Z,0.00
2019-01-04T02:28:38.805Z,0.00
2019-01-04T02:29:38.788Z,0.00
2019-01-04T02:30:38.752Z,0.00
2019-01-04T02:31:38.739Z,0.00
2019-01-04T02:32:38.708Z,0.00
2019-01-04T02:33:38.677Z,0.00
2019-01-04T02:34:38.651Z,0.00
2019-01-04T02:35:38.629Z,0.00
2019-01-04T02:36:38.602Z,0.00
2019-01-04T02:37:39.187Z,0.00
2019-01-04T02:38:38.548Z,0.00
2019-01-04T02:39:38.539Z,0.00
2019-01-04T02:40:38.501Z,0.00
2019-01-04T02:41:38.479Z,0.00
2019-01-04T02:42:38.453Z,0.00
2019-01-04T02:43:38.437Z,0.00
2019-01-04T02:44:38.401Z,0.00
2019-01-04T02:45:38.379Z,0.00
2019-01-04T02:46:38.344Z,0.00
2019-01-04T02:47:38.331Z,0.00
2019-01-04T02:48:38.295Z,0.00
2019-01-04T02:49:38.270Z,0.00
2019-01-04T02:50:38.249Z,0.00
2019-01-04T02:51:38.230Z,0.00
2019-01-04T02:52:38.197Z,0.00
2019-01-04T02:53:38.181Z,0.00
2019-01-04T02:54:38.159Z,0.00
2019-01-04T02:55:38.119Z,0.00
2019-01-04T02:56:38.093Z,0.00
2019-01-04T02:57:38.064Z,0.00
2019-01-04T02:58:38.038Z,0.00
2019-01-04T02:59:38.709Z,0.00
2019-01-04T03:00:37.995Z,0.00
2019-01-04T03:01:37.972Z,0.00
2019-01-04T03:02:37.940Z,0.00
2019-01-04T03:03:37.915Z,0.00
2019-01-04T03:04:37.886Z,0.00
2019-01-04T03:05:37.872Z,0.00
2019-01-04T03:06:37.840Z,0.00
2019-01-04T03:07:37.809Z,0.00
2019-01-04T03:08:37.867Z,0.00
2019-01-04T03:09:37.764Z,0.00
2019-01-04T03:10:37.738Z,0.00
2019-01-04T03:11:37.707Z,0.00
2019-01-04T03:12:37.687Z,0.00
2019-01-04T03:13:37.667Z,0.00
2019-01-04T03:14:37.634Z,0.00
2019-01-04T03:15:37.610Z,0.00
2019-01-04T03:16:38.694Z,0.00
2019-01-04T03:17:37.556Z,0.00
2019-01-04T03:18:37.531Z,0.00
2019-01-04T03:19:37.507Z,0.00
2019-01-04T03:20:37.481Z,0.00
2019-01-04T03:21:37.455Z,0.00
2019-01-04T03:22:37.446Z,0.00
2019-01-04T03:23:37.424Z,0.00
2019-01-04T03:24:37.382Z,0.00
2019-01-04T03:25:37.360Z,0.00
2019-01-04T03:26:37.327Z,0.00
2019-01-04T03:27:37.305Z,0.00
2019-01-04T03:28:37.284Z,0.00
2019-01-04T03:29:37.259Z,0.00
2019-01-04T03:30:37.227Z,0.00
2019-01-04T03:31:37.201Z,0.00
2019-01-04T03:32:37.184Z,0.00
2019-01-04T03:33:37.157Z,0.00
2019-01-04T03:34:37.130Z,0.00
2019-01-04T03:35:37.107Z,0.00
2019-01-04T03:36:37.092Z,0.00
2019-01-04T03:37:37.050Z,0.00
2019-01-04T03:38:37.023Z,0.00
2019-01-04T03:39:37.001Z,0.00
2019-01-04T03:40:36.978Z,0.00
2019-01-04T03:41:36.966Z,0.00
2019-01-04T03:42:36.927Z,0.00
2019-01-04T03:43:36.910Z,0.00
2019-01-04T03:44:36.877Z,0.00
2019-01-04T03:45:36.853Z,0.00
2019-01-04T03:46:36.826Z,0.00
2019-01-04T03:47:36.794Z,0.00
2019-01-04T03:48:36.775Z,0.00
2019-01-04T03:49:36.746Z,0.00
2019-01-04T03:50:36.720Z,0.00
2019-01-04T03:51:37.202Z,0.00
2019-01-04T03:52:36.675Z,0.00
2019-01-04T03:53:36.647Z,0.00
2019-01-04T03:54:36.617Z,0.00
2019-01-04T03:55:36.599Z,0.00
2019-01-04T03:56:36.570Z,0.00
2019-01-04T03:57:36.553Z,0.00
2019-01-04T03:58:36.524Z,0.00
2019-01-04T03:59:36.494Z,0.00
2019-01-04T04:00:36.473Z,0.00
2019-01-04T04:01:36.440Z,0.00
2019-01-04T04:02:36.421Z,0.00
2019-01-04T04:03:36.396Z,0.00
2019-01-04T04:04:36.374Z,0.00
2019-01-04T04:05:36.342Z,0.00
2019-01-04T04:06:36.316Z,0.00
2019-01-04T04:07:36.290Z,0.00
2019-01-04T04:08:36.264Z,0.00
2019-01-04T04:09:36.242Z,0.00
2019-01-04T04:10:36.213Z,0.00
2019-01-04T04:11:36.194Z,0.00
2019-01-04T04:12:36.167Z,0.00
2019-01-04T04:13:36.139Z,0.00
2019-01-04T04:14:36.118Z,0.00
2019-01-04T04:15:36.085Z,0.00
2019-01-04T04:16:36.069Z,0.00
2019-01-04T04:17:36.043Z,0.00
2019-01-04T04:18:36.016Z,0.00
2019-01-04T04:19:35.992Z,0.00
2019-01-04T04:20:35.963Z,0.00
2019-01-04T04:21:35.938Z,0.00
2019-01-04T04:22:35.918Z,0.00
2019-01-04T04:23:35.885Z,0.00
2019-01-04T04:24:35.866Z,0.00
2019-01-04T04:25:36.697Z,0.00
2019-01-04T04:26:36.703Z,0.00
2019-01-04T04:27:35.789Z,0.00
2019-01-04T04:28:36.708Z,0.00
2019-01-04T04:29:35.743Z,0.00
2019-01-04T04:30:35.707Z,0.00
2019-01-04T04:31:35.680Z,0.00
2019-01-04T04:32:35.656Z,0.00
2019-01-04T04:33:35.634Z,0.00
2019-01-04T04:34:35.604Z,0.00
2019-01-04T04:35:35.581Z,0.00
2019-01-04T04:36:35.573Z,0.00
2019-01-04T04:37:35.533Z,0.00
2019-01-04T04:38:35.509Z,0.00
2019-01-04T04:39:35.480Z,0.00
2019-01-04T04:40:35.454Z,0.00
2019-01-04T04:41:36.219Z,0.00
2019-01-04T04:42:35.402Z,0.00
2019-01-04T04:43:35.383Z,0.00
2019-01-04T04:44:35.351Z,0.00
2019-01-04T04:45:35.338Z,0.00
2019-01-04T04:46:35.301Z,0.00
2019-01-04T04:47:35.276Z,0.00
2019-01-04T04:48:35.255Z,0.00
2019-01-04T04:49:35.226Z,0.00
2019-01-04T04:50:35.205Z,0.00
2019-01-04T04:51:35.710Z,0.00
2019-01-04T04:52:35.710Z,0.00
2019-01-04T04:53:36.094Z,0.00
2019-01-04T04:54:35.104Z,0.00
2019-01-04T04:55:35.084Z,0.00
2019-01-04T04:56:35.710Z,0.00
2019-01-04T04:57:35.704Z,0.00
2019-01-04T04:58:35.004Z,0.00
2019-01-04T04:59:34.980Z,0.00
2019-01-04T05:00:34.947Z,0.00
2019-01-04T05:01:34.922Z,0.00
2019-01-04T05:02:34.897Z,0.00
2019-01-04T05:03:34.871Z,0.00
2019-01-04T05:04:34.858Z,0.00
2019-01-04T05:05:34.824Z,0.00
2019-01-04T05:06:34.801Z,0.00
2019-01-04T05:07:34.777Z,0.00
2019-01-04T05:08:34.749Z,0.00
2019-01-04T05:09:34.724Z,0.00
2019-01-04T05:10:34.694Z,0.00
2019-01-04T05:11:34.675Z,0.00
2019-01-04T05:12:34.649Z,0.00
2019-01-04T05:13:34.624Z,0.00
2019-01-04T05:14:34.598Z,0.00
2019-01-04T05:15:34.570Z,0.00
2019-01-04T05:16:34.541Z,0.00
2019-01-04T05:17:34.517Z,0.00
2019-01-04T05:18:34.494Z,0.00
2019-01-04T05:19:34.465Z,0.00
2019-01-04T05:20:34.464Z,0.00
2019-01-04T05:21:34.429Z,0.00
2019-01-04T05:22:34.398Z,0.00
2019-01-04T05:23:34.366Z,0.00
2019-01-04T05:24:35.218Z,0.00
2019-01-04T05:25:34.323Z,0.00
2019-01-04T05:26:34.295Z,0.00
2019-01-04T05:27:34.272Z,0.00
2019-01-04T05:28:34.239Z,0.00
2019-01-04T05:29:34.213Z,0.00
2019-01-04T05:30:34.198Z,0.00
2019-01-04T05:31:34.165Z,0.00
2019-01-04T05:32:34.138Z,0.00
2019-01-04T05:33:34.111Z,0.00
2019-01-04T05:34:34.086Z,0.00
2019-01-04T05:35:34.066Z,0.00
2019-01-04T05:36:34.050Z,0.00
2019-01-04T05:37:34.015Z,0.00
2019-01-04T05:38:33.994Z,0.00
2019-01-04T05:39:33.958Z,0.00
2019-01-04T05:40:33.935Z,0.00
2019-01-04T05:41:33.916Z,0.00
2019-01-04T05:42:33.885Z,0.00
2019-01-04T05:43:33.862Z,0.00
2019-01-04T05:44:33.839Z,0.00
2019-01-04T05:45:33.810Z,0.00
2019-01-04T05:46:34.721Z,0.00
2019-01-04T05:47:33.762Z,0.00
2019-01-04T05:48:33.731Z,0.00
2019-01-04T05:49:33.708Z,0.00
2019-01-04T05:50:33.679Z,0.00
2019-01-04T05:51:33.662Z,0.00
2019-01-04T05:52:33.637Z,0.00
2019-01-04T05:53:33.607Z,0.00
2019-01-04T05:54:33.580Z,0.00
2019-01-04T05:55:33.558Z,0.00
2019-01-04T05:56:33.532Z,0.00
2019-01-04T05:57:33.511Z,0.00
2019-01-04T05:58:33.479Z,0.00
2019-01-04T05:59:33.457Z,0.00
2019-01-04T06:00:34.218Z,0.00
2019-01-04T06:01:33.404Z,0.00
2019-01-04T06:02:33.386Z,0.00
2019-01-04T06:03:33.357Z,0.00
2019-01-04T06:04:33.326Z,0.00
2019-01-04T06:05:33.307Z,0.00
2019-01-04T06:06:33.298Z,0.00
2019-01-04T06:07:33.249Z,0.00
2019-01-04T06:08:33.230Z,0.00
2019-01-04T06:09:33.214Z,0.00
2019-01-04T06:10:33.179Z,0.00
2019-01-04T06:11:33.150Z,0.00
2019-01-04T06:12:33.156Z,0.00
2019-01-04T06:13:33.099Z,0.00
2019-01-04T06:14:33.080Z,0.00
2019-01-04T06:15:33.048Z,0.00
2019-01-04T06:16:33.029Z,0.00
2019-01-04T06:17:32.997Z,0.00
2019-01-04T06:18:32.981Z,0.00
2019-01-04T06:19:32.946Z,0.00
2019-01-04T06:20:32.933Z,0.00
2019-01-04T06:21:32.899Z,0.00
2019-01-04T06:22:32.875Z,0.00
2019-01-04T06:23:32.846Z,0.00
2019-01-04T06:24:32.821Z,0.00
2019-01-04T06:25:32.802Z,0.00
2019-01-04T06:26:32.770Z,0.00
2019-01-04T06:27:32.745Z,0.00
2019-01-04T06:28:32.720Z,0.00
2019-01-04T06:29:32.695Z,0.00
2019-01-04T06:30:32.669Z,0.00
2019-01-04T06:31:32.650Z,0.00
2019-01-04T06:32:33.230Z,0.00
2019-01-04T06:33:32.592Z,0.00
2019-01-04T06:34:32.567Z,0.00
2019-01-04T06:35:32.541Z,0.00
2019-01-04T06:36:32.519Z,0.00
2019-01-04T06:37:32.503Z,0.00
2019-01-04T06:38:32.466Z,0.00
2019-01-04T06:39:32.439Z,0.00
2019-01-04T06:40:32.415Z,0.00
2019-01-04T06:41:32.397Z,0.00
2019-01-04T06:42:32.366Z,0.00
2019-01-04T06:43:32.344Z,0.00
2019-01-04T06:44:32.314Z,0.00
2019-01-04T06:45:32.294Z,0.00
2019-01-04T06:46:32.268Z,0.00
2019-01-04T06:47:32.732Z,0.00
2019-01-04T06:48:32.217Z,0.00
2019-01-04T06:49:32.223Z,0.00
2019-01-04T06:50:32.170Z,0.00
2019-01-04T06:51:32.736Z,0.00
2019-01-04T06:52:32.110Z,0.00
2019-01-04T06:53:32.085Z,0.00
2019-01-04T06:54:32.059Z,0.00
2019-01-04T06:55:32.033Z,0.00
2019-01-04T06:56:32.014Z,0.00
2019-01-04T06:57:31.986Z,0.00
2019-01-04T06:58:31.960Z,0.00
2019-01-04T06:59:31.937Z,0.00
2019-01-04T07:00:31.911Z,0.00
2019-01-04T07:01:31.882Z,0.00
2019-01-04T07:02:31.850Z,0.00
2019-01-04T07:03:31.831Z,0.00
2019-01-04T07:04:31.814Z,0.00
2019-01-04T07:05:31.866Z,0.00
2019-01-04T07:06:31.754Z,0.00
2019-01-04T07:07:31.735Z,0.00
2019-01-04T07:08:31.711Z,0.00
2019-01-04T07:09:31.680Z,0.00
2019-01-04T07:10:31.661Z,0.00
2019-01-04T07:11:31.629Z,0.00
2019-01-04T07:12:31.603Z,0.00
2019-01-04T07:13:31.577Z,0.00
2019-01-04T07:14:31.552Z,5.63
2019-01-04T07:15:31.533Z,5.63
2019-01-04T07:16:31.500Z,5.63
2019-01-04T07:17:31.481Z,5.63
2019-01-04T07:18:32.237Z,5.63
2019-01-04T07:19:31.424Z,5.63
2019-01-04T07:20:31.399Z,11.25
2019-01-04T07:21:31.376Z,11.25
2019-01-04T07:22:31.351Z,11.25
2019-01-04T07:23:31.328Z,11.25
2019-01-04T07:24:31.298Z,11.25
2019-01-04T07:25:31.279Z,16.88
2019-01-04T07:26:31.260Z,16.88
2019-01-04T07:27:31.222Z,16.88
2019-01-04T07:28:31.202Z,16.88
2019-01-04T07:29:31.178Z,22.50
2019-01-04T07:30:31.171Z,22.50
2019-01-04T07:31:31.122Z,28.13
2019-01-04T07:32:31.095Z,28.13
2019-01-04T07:33:31.731Z,28.13
2019-01-04T07:34:31.041Z,33.75
2019-01-04T07:35:31.021Z,33.75
2019-01-04T07:36:30.993Z,33.75
2019-01-04T07:37:30.968Z,39.38
2019-01-04T07:38:30.953Z,45.00
2019-01-04T07:39:30.919Z,45.00
2019-01-04T07:40:30.898Z,45.00
2019-01-04T07:41:30.876Z,45.00
2019-01-04T07:42:30.840Z,45.00
2019-01-04T07:43:30.827Z,45.00
2019-01-04T07:44:30.789Z,45.00
2019-01-04T07:45:30.772Z,45.00
2019-01-04T07:46:30.741Z,50.63
2019-01-04T07:47:30.716Z,56.25
2019-01-04T07:48:30.687Z,56.25
2019-01-04T07:49:31.241Z,56.25
2019-01-04T07:50:30.641Z,61.88
2019-01-04T07:51:30.616Z,61.88
2019-01-04T07:52:31.242Z,67.50
2019-01-04T07:53:30.568Z,67.50
2019-01-04T07:54:31.235Z,67.50
2019-01-04T07:55:30.511Z,73.13
2019-01-04T07:56:31.245Z,73.13
2019-01-04T07:57:30.467Z,73.13
2019-01-04T07:58:31.244Z,73.13
2019-01-04T07:59:30.410Z,78.75
2019-01-04T08:00:30.391Z,78.75
2019-01-04T08:01:30.370Z,84.38
2019-01-04T08:02:30.332Z,90.00
2019-01-04T08:03:30.308Z,95.63
2019-01-04T08:04:30.283Z,95.63
2019-01-04T08:05:30.269Z,95.63
2019-01-04T08:06:30.237Z,95.63
2019-01-04T08:07:30.744Z,101.25
2019-01-04T08:08:30.187Z,101.25
2019-01-04T08:09:30.163Z,106.88
2019-01-04T08:10:30.135Z,106.88
2019-01-04T08:11:30.113Z,112.50
2019-01-04T08:12:30.087Z,112.50
2019-01-04T08:13:30.056Z,118.13
2019-01-04T08:14:30.034Z,118.13
2019-01-04T08:15:30.011Z,118.13
2019-01-04T08:16:29.995Z,123.75
2019-01-04T08:17:29.963Z,123.75
2019-01-04T08:18:29.938Z,118.13
2019-01-04T08:19:29.914Z,118.13
2019-01-04T08:20:29.884Z,118.13
2019-01-04T08:21:29.863Z,118.13
2019-01-04T08:22:30.741Z,118.13
2019-01-04T08:23:29.827Z,118.13
2019-01-04T08:24:29.785Z,118.13
2019-01-04T08:25:29.781Z,118.13
2019-01-04T08:26:29.738Z,123.75
2019-01-04T08:27:29.710Z,123.75
2019-01-04T08:28:29.682Z,123.75
2019-01-04T08:29:29.663Z,123.75
2019-01-04T08:30:29.631Z,129.38
2019-01-04T08:31:29.630Z,129.38
2019-01-04T08:32:29.589Z,135.00
2019-01-04T08:33:30.243Z,135.00
2019-01-04T08:34:29.542Z,135.00
2019-01-04T08:35:29.505Z,140.63
2019-01-04T08:36:29.481Z,140.63
2019-01-04T08:37:29.464Z,140.63
2019-01-04T08:38:30.250Z,146.25
2019-01-04T08:39:29.416Z,146.25
2019-01-04T08:40:29.388Z,146.25
2019-01-04T08:41:29.358Z,151.88
2019-01-04T08:42:29.345Z,157.50
2019-01-04T08:43:29.306Z,163.13
2019-01-04T08:44:29.280Z,168.75
2019-01-04T08:45:29.282Z,174.38
2019-01-04T08:46:29.255Z,180.00
2019-01-04T08:47:29.213Z,185.63
2019-01-04T08:48:29.184Z,191.25
2019-01-04T08:49:29.172Z,191.25
2019-01-04T08:50:29.146Z,196.88
2019-01-04T08:51:29.107Z,202.50
2019-01-04T08:52:29.097Z,202.50
2019-01-04T08:53:29.056Z,208.13
2019-01-04T08:54:29.754Z,208.13
2019-01-04T08:55:29.015Z,208.13
2019-01-04T08:56:29.002Z,202.50
2019-01-04T08:57:28.967Z,202.50
2019-01-04T08:58:28.941Z,196.88
2019-01-04T08:59:28.914Z,196.88
2019-01-04T09:00:28.884Z,196.88
2019-01-04T09:01:28.864Z,196.88
2019-01-04T09:02:28.831Z,196.88
2019-01-04T09:03:28.810Z,196.88
2019-01-04T09:04:28.788Z,202.50
2019-01-04T09:05:28.760Z,208.13
2019-01-04T09:06:28.733Z,213.75
2019-01-04T09:07:28.715Z,219.38
2019-01-04T09:08:28.695Z,225.00
2019-01-04T09:09:28.675Z,225.00
2019-01-04T09:10:28.635Z,230.63
2019-01-04T09:11:28.629Z,225.00
2019-01-04T09:12:28.593Z,225.00
2019-01-04T09:13:28.571Z,225.00
2019-01-04T09:14:28.536Z,219.38
2019-01-04T09:15:28.514Z,219.38
2019-01-04T09:16:28.492Z,213.75
2019-01-04T09:17:28.470Z,208.13
2019-01-04T09:18:29.297Z,202.50
2019-01-04T09:19:28.415Z,196.88
2019-01-04T09:20:28.389Z,191.25
2019-01-04T09:21:28.374Z,191.25
2019-01-04T09:22:28.344Z,191.25
2019-01-04T09:23:28.329Z,191.25
2019-01-04T09:24:28.294Z,191.25
2019-01-04T09:25:28.268Z,196.88
2019-01-04T09:26:28.249Z,191.25
2019-01-04T09:27:28.220Z,191.25
2019-01-04T09:28:28.192Z,191.25
2019-01-04T09:29:28.172Z,191.25
2019-01-04T09:30:28.147Z,191.25
2019-01-04T09:31:28.128Z,196.88
2019-01-04T09:32:28.103Z,202.50
2019-01-04T09:33:28.080Z,208.13
2019-01-04T09:34:28.048Z,213.75
2019-01-04T09:35:28.038Z,219.38
2019-01-04T09:36:28.000Z,219.38
2019-01-04T09:37:27.974Z,230.63
2019-01-04T09:38:27.958Z,236.25
2019-01-04T09:39:27.924Z,236.25
2019-01-04T09:40:27.903Z,236.25
2019-01-04T09:41:27.876Z,247.50
2019-01-04T09:42:27.857Z,258.75
2019-01-04T09:43:27.858Z,258.75
2019-01-04T09:44:27.809Z,258.75
2019-01-04T09:45:27.779Z,264.38
2019-01-04T09:46:27.761Z,247.50
2019-01-04T09:47:27.742Z,236.25
2019-01-04T09:48:27.707Z,225.00
2019-01-04T09:49:27.688Z,202.50
2019-01-04T09:50:27.656Z,185.63
2019-01-04T09:51:27.631Z,174.38
2019-01-04T09:52:27.615Z,174.38
2019-01-04T09:53:27.589Z,168.75
2019-01-04T09:54:27.564Z,163.13
2019-01-04T09:55:27.528Z,174.38
2019-01-04T09:56:27.514Z,185.63
2019-01-04T09:57:27.492Z,180.00
2019-01-04T09:58:27.481Z,174.38
2019-01-04T09:59:27.438Z,180.00
2019-01-04T10:00:27.413Z,180.00
2019-01-04T10:01:27.402Z,174.38
2019-01-04T10:02:27.374Z,202.50
2019-01-04T10:03:27.339Z,208.13
2019-01-04T10:04:27.362Z,213.75
2019-01-04T10:05:27.292Z,225.00
2019-01-04T10:06:27.771Z,241.88
2019-01-04T10:07:27.254Z,241.88
2019-01-04T10:08:27.774Z,258.75
2019-01-04T10:09:27.202Z,264.38
2019-01-04T10:10:27.189Z,270.00
2019-01-04T10:11:27.154Z,281.25
2019-01-04T10:12:27.132Z,270.00
2019-01-04T10:13:27.108Z,275.63
2019-01-04T10:14:27.090Z,286.88
2019-01-04T10:15:27.058Z,281.25
2019-01-04T10:16:27.025Z,281.25
2019-01-04T10:17:27.005Z,292.50
2019-01-04T10:18:28.265Z,286.88
2019-01-04T10:19:26.962Z,281.25
2019-01-04T10:20:27.765Z,275.63
2019-01-04T10:21:26.910Z,275.63
2019-01-04T10:22:26.881Z,264.38
2019-01-04T10:23:26.868Z,258.75
2019-01-04T10:24:26.836Z,258.75
2019-01-04T10:25:26.811Z,264.38
2019-01-04T10:26:26.785Z,275.63
2019-01-04T10:27:26.766Z,292.50
2019-01-04T10:28:26.746Z,309.38
2019-01-04T10:29:26.731Z,320.63
2019-01-04T10:30:26.728Z,320.63
2019-01-04T10:31:26.676Z,315.00
2019-01-04T10:32:26.644Z,320.63
2019-01-04T10:33:26.619Z,320.63
2019-01-04T10:34:26.602Z,303.75
2019-01-04T10:35:26.574Z,303.75
2019-01-04T10:36:26.554Z,292.50
2019-01-04T10:37:26.532Z,281.25
2019-01-04T10:38:26.506Z,286.88
2019-01-04T10:39:26.509Z,286.88
2019-01-04T10:40:26.461Z,298.13
2019-01-04T10:41:26.436Z,303.75
2019-01-04T10:42:26.419Z,292.50
2019-01-04T10:43:26.391Z,292.50
2019-01-04T10:44:26.358Z,298.13
2019-01-04T10:45:27.273Z,292.50
2019-01-04T10:46:26.312Z,286.88
2019-01-04T10:47:26.772Z,286.88
2019-01-04T10:48:26.836Z,281.25
2019-01-04T10:49:26.242Z,270.00
2019-01-04T10:50:26.223Z,270.00
2019-01-04T10:51:26.197Z,270.00
2019-01-04T10:52:26.188Z,270.00
2019-01-04T10:53:26.156Z,275.63
2019-01-04T10:54:26.159Z,281.25
2019-01-04T10:55:26.102Z,315.00
2019-01-04T10:56:26.086Z,343.13
2019-01-04T10:57:26.054Z,354.38
2019-01-04T10:58:26.032Z,365.63
2019-01-04T10:59:26.019Z,365.63
2019-01-04T11:00:25.980Z,371.25
2019-01-04T11:01:25.964Z,371.25
2019-01-04T11:02:25.945Z,371.25
2019-01-04T11:03:25.917Z,376.88
2019-01-04T11:04:25.894Z,388.13
2019-01-04T11:05:25.878Z,376.88
2019-01-04T11:06:25.850Z,388.13
2019-01-04T11:07:25.827Z,399.38
2019-01-04T11:08:25.805Z,416.25
2019-01-04T11:09:25.791Z,427.50
2019-01-04T11:10:25.757Z,433.13
2019-01-04T11:11:25.742Z,438.75
2019-01-04T11:12:25.715Z,450.00
2019-01-04T11:13:25.700Z,461.25
2019-01-04T11:14:25.670Z,450.00
2019-01-04T11:15:25.648Z,444.38
2019-01-04T11:16:25.625Z,410.63
2019-01-04T11:17:25.624Z,399.38
2019-01-04T11:18:25.581Z,399.38
2019-01-04T11:19:25.565Z,427.50
2019-01-04T11:20:26.280Z,455.63
2019-01-04T11:21:25.518Z,466.88
2019-01-04T11:22:25.496Z,478.13
2019-01-04T11:23:25.484Z,500.63
2019-01-04T11:24:25.454Z,534.38
2019-01-04T11:25:25.435Z,562.50
2019-01-04T11:26:26.333Z,585.00
2019-01-04T11:27:25.397Z,585.00
2019-01-04T11:28:25.374Z,596.25
2019-01-04T11:29:25.354Z,568.13
2019-01-04T11:30:25.341Z,556.88
2019-01-04T11:31:25.311Z,562.50
2019-01-04T11:32:25.289Z,551.25
2019-01-04T11:33:25.270Z,534.38
2019-01-04T11:34:25.245Z,523.13
2019-01-04T11:35:25.225Z,506.25
2019-01-04T11:36:25.199Z,489.38
2019-01-04T11:37:25.186Z,478.13
2019-01-04T11:38:25.161Z,466.88
2019-01-04T11:39:25.155Z,455.63
2019-01-04T11:40:25.118Z,450.00
2019-01-04T11:41:25.089Z,444.38
2019-01-04T11:42:25.070Z,444.38
2019-01-04T11:43:25.048Z,438.75
2019-01-04T11:44:25.025Z,438.75
2019-01-04T11:45:25.009Z,433.13
2019-01-04T11:46:25.799Z,438.75
2019-01-04T11:47:24.959Z,444.38
2019-01-04T11:48:24.936Z,444.38
2019-01-04T11:49:24.916Z,444.38
2019-01-04T11:50:24.902Z,450.00
2019-01-04T11:51:24.876Z,450.00
2019-01-04T11:52:30.998Z,455.63
2019-01-04T11:53:25.789Z,455.63
2019-01-04T11:54:24.802Z,461.25
2019-01-04T11:55:24.786Z,472.50
2019-01-04T11:56:24.780Z,483.75
2019-01-04T11:57:24.736Z,489.38
2019-01-04T11:58:24.712Z,489.38
2019-01-04T11:59:24.696Z,478.13
2019-01-04T12:00:24.674Z,472.50
2019-01-04T12:01:24.651Z,478.13
2019-01-04T12:02:26.461Z,472.50
2019-01-04T12:03:24.600Z,466.88
2019-01-04T12:04:24.585Z,455.63
2019-01-04T12:05:24.561Z,444.38
2019-01-04T12:06:24.533Z,438.75
2019-01-04T12:07:24.516Z,433.13
2019-01-04T12:08:24.494Z,427.50
2019-01-04T12:09:24.465Z,427.50
2019-01-04T12:10:24.442Z,421.88
2019-01-04T12:11:24.420Z,416.25
2019-01-04T12:12:24.404Z,388.13
2019-01-04T12:13:24.376Z,376.88
2019-01-04T12:14:24.359Z,376.88
2019-01-04T12:15:24.330Z,376.88
2019-01-04T12:16:24.308Z,371.25
2019-01-04T12:17:24.285Z,348.75
2019-01-04T12:18:24.260Z,360.00
2019-01-04T12:19:24.244Z,376.88
2019-01-04T12:20:24.215Z,376.88
2019-01-04T12:21:24.202Z,365.63
2019-01-04T12:22:24.172Z,388.13
2019-01-04T12:23:24.217Z,399.38
2019-01-04T12:24:24.132Z,405.00
2019-01-04T12:25:24.100Z,410.63
2019-01-04T12:26:24.088Z,410.63
2019-01-04T12:27:24.055Z,405.00
2019-01-04T12:28:24.047Z,382.50
2019-01-04T12:29:24.011Z,376.88
2019-01-04T12:30:23.991Z,371.25
2019-01-04T12:31:24.810Z,376.88
2019-01-04T12:32:23.942Z,371.25
2019-01-04T12:33:23.923Z,376.88
2019-01-04T12:34:24.856Z,371.25
2019-01-04T12:35:24.772Z,365.63
2019-01-04T12:36:23.846Z,354.38
2019-01-04T12:37:23.824Z,348.75
2019-01-04T12:38:23.807Z,354.38
2019-01-04T12:39:23.778Z,354.38
2019-01-04T12:40:23.756Z,360.00
2019-01-04T12:41:23.732Z,354.38
2019-01-04T12:42:23.712Z,343.13
2019-01-04T12:43:23.683Z,354.38
2019-01-04T12:44:23.720Z,371.25
2019-01-04T12:45:23.638Z,376.88
2019-01-04T12:46:23.613Z,376.88
2019-01-04T12:47:23.597Z,376.88
2019-01-04T12:48:23.570Z,382.50
2019-01-04T12:49:23.546Z,388.13
2019-01-04T12:50:23.527Z,376.88
2019-01-04T12:51:23.498Z,376.88
2019-01-04T12:52:23.472Z,382.50
2019-01-04T12:53:23.450Z,382.50
2019-01-04T12:54:23.428Z,382.50
2019-01-04T12:55:24.307Z,382.50
2019-01-04T12:56:23.386Z,393.75
2019-01-04T12:57:23.357Z,399.38